Urb Rincon Espanol, Puerto Rico
Current Conditions -  °F | °C
As of 1:56 PM on Sunday 23 Nov 2014 (Local Time) from TJSJ Reporting Station
Scattered Clouds Scattered Clouds  
Wind Chill: 85°   Ceiling: Unl
Heat Index: 92°   Visibility: 10mi
Dew Point: 73°   Wind: 16mph
Humidity: 67%   Direction: 80°E
Pressure: 29.98"   Gusts: NA
Location:  18.3569°N, 66.0247°W
Report Text: TJSJ 231756Z 08014KT 10SM FEW028 SCT050 SCT090 29/23 A2998 RMK AO2 SLP150 T02940228 10306 20261 56024 $
Loading
Personal Weather Stations






























Interactive Weather Map New forecast layout! Learn more

10-Day Weather Forecast

Advertisements
Track Severe Weather on mobile